createdAt,value
2022-09-25T00:01:14.184Z,14.00
2022-09-25T00:03:42.687Z,14.00
2022-09-25T00:06:14.590Z,14.00
2022-09-25T00:08:42.849Z,14.00
2022-09-25T00:11:14.410Z,14.00
2022-09-25T00:13:43.630Z,14.00
2022-09-25T00:16:13.789Z,14.00
2022-09-25T00:18:59.233Z,14.00
2022-09-25T00:21:29.443Z,13.90
2022-09-25T00:23:57.341Z,13.80
2022-09-25T00:26:28.686Z,13.80
2022-09-25T00:28:57.079Z,13.80
2022-09-25T00:31:25.578Z,13.80
2022-09-25T00:33:53.431Z,13.80
2022-09-25T00:36:21.794Z,13.80
2022-09-25T00:38:50.622Z,13.80
2022-09-25T00:41:19.562Z,13.90
2022-09-25T00:43:50.981Z,13.90
2022-09-25T00:46:22.599Z,13.90
2022-09-25T00:48:54.335Z,13.90
2022-09-25T00:51:28.990Z,13.90
2022-09-25T00:54:01.311Z,13.90
2022-09-25T00:56:32.741Z,13.90
2022-09-25T00:59:01.967Z,13.90
2022-09-25T01:01:29.786Z,14.00
2022-09-25T01:03:57.760Z,14.00
2022-09-25T01:06:27.227Z,14.00
2022-09-25T01:08:56.155Z,14.00
2022-09-25T01:11:23.990Z,14.00
2022-09-25T01:13:56.394Z,14.00
2022-09-25T01:16:33.013Z,14.00
2022-09-25T01:19:16.156Z,13.90
2022-09-25T01:21:47.667Z,13.80
2022-09-25T01:24:45.328Z,13.80
2022-09-25T01:27:29.835Z,13.80
2022-09-25T01:30:04.322Z,13.80
2022-09-25T01:32:37.334Z,13.80
2022-09-25T01:35:11.667Z,13.90
2022-09-25T01:37:43.767Z,13.90
2022-09-25T01:40:17.976Z,13.90
2022-09-25T01:42:50.583Z,14.00
2022-09-25T01:45:22.587Z,14.00
2022-09-25T01:47:53.125Z,14.00
2022-09-25T01:50:27.536Z,14.00
2022-09-25T01:53:00.400Z,14.00
2022-09-25T01:55:31.889Z,14.00
2022-09-25T01:58:08.697Z,14.00
2022-09-25T02:00:40.765Z,14.00
2022-09-25T02:03:12.565Z,13.90
2022-09-25T02:05:44.704Z,13.90
2022-09-25T02:08:19.520Z,13.90
2022-09-25T02:10:51.121Z,13.90
2022-09-25T02:13:20.770Z,13.90
2022-09-25T02:15:54.040Z,13.90
2022-09-25T02:18:42.283Z,13.90
2022-09-25T02:21:17.501Z,13.90
2022-09-25T02:23:53.454Z,13.90
2022-09-25T02:26:26.689Z,13.90
2022-09-25T02:28:54.904Z,14.00
2022-09-25T02:31:30.938Z,13.90
2022-09-25T02:33:59.252Z,13.90
2022-09-25T02:36:26.960Z,14.00
2022-09-25T02:38:56.443Z,13.90
2022-09-25T02:41:40.503Z,14.00
2022-09-25T02:44:17.522Z,14.00
2022-09-25T02:46:55.082Z,13.90
2022-09-25T02:49:29.605Z,13.90
2022-09-25T02:52:05.791Z,13.90
2022-09-25T02:54:40.680Z,13.90
2022-09-25T02:57:14.489Z,14.00
2022-09-25T02:59:46.688Z,14.00
2022-09-25T03:02:18.126Z,14.00
2022-09-25T03:04:48.963Z,14.00
2022-09-25T03:07:18.418Z,14.00
2022-09-25T03:09:48.867Z,14.00
2022-09-25T03:12:17.184Z,14.00
2022-09-25T03:14:44.978Z,14.00
2022-09-25T03:17:15.038Z,14.00
2022-09-25T03:19:44.217Z,14.00
2022-09-25T03:22:11.989Z,14.00
2022-09-25T03:24:39.800Z,14.00
2022-09-25T03:27:07.571Z,14.00
2022-09-25T03:29:35.871Z,14.00
2022-09-25T03:32:03.663Z,13.90
2022-09-25T03:34:31.447Z,13.90
2022-09-25T03:37:00.531Z,13.90
2022-09-25T03:39:28.211Z,13.90
2022-09-25T03:41:55.973Z,13.90
2022-09-25T03:44:23.694Z,13.90
2022-09-25T03:46:51.460Z,14.00
2022-09-25T03:49:19.258Z,13.90
2022-09-25T03:51:46.993Z,13.90
2022-09-25T03:54:16.244Z,13.90
2022-09-25T03:56:43.969Z,13.90
2022-09-25T03:59:11.647Z,13.90
2022-09-25T04:01:40.450Z,13.90
2022-09-25T04:04:08.231Z,13.90
2022-09-25T04:06:36.196Z,13.90
2022-09-25T04:09:04.025Z,14.00
2022-09-25T04:11:33.140Z,14.00
2022-09-25T04:14:00.831Z,14.00
2022-09-25T04:16:29.373Z,14.00
2022-09-25T04:18:57.174Z,14.00
2022-09-25T04:21:25.046Z,14.00
2022-09-25T04:24:06.790Z,14.00
2022-09-25T04:26:36.303Z,14.00
2022-09-25T04:29:04.314Z,13.90
2022-09-25T04:31:32.838Z,13.90
2022-09-25T04:33:59.789Z,13.90
2022-09-25T04:36:27.502Z,13.90
2022-09-25T04:38:55.224Z,13.90
2022-09-25T04:41:22.996Z,13.90
2022-09-25T04:43:52.031Z,14.00
2022-09-25T04:46:22.359Z,14.00
2022-09-25T04:48:50.645Z,14.00
2022-09-25T04:51:18.506Z,14.00
2022-09-25T04:53:46.635Z,14.00
2022-09-25T04:56:16.231Z,14.10
2022-09-25T04:58:46.833Z,14.10
2022-09-25T05:01:17.142Z,14.00
2022-09-25T05:03:45.047Z,14.00
2022-09-25T05:06:12.987Z,14.00
2022-09-25T05:08:40.704Z,14.00
2022-09-25T05:11:08.801Z,14.00
2022-09-25T05:13:36.585Z,14.00
2022-09-25T05:16:04.375Z,14.00
2022-09-25T05:18:33.529Z,14.00
2022-09-25T05:21:05.265Z,14.10
2022-09-25T05:23:33.098Z,14.00
2022-09-25T05:26:02.126Z,14.10
2022-09-25T05:28:30.591Z,14.10
2022-09-25T05:31:01.788Z,14.10
2022-09-25T05:33:29.577Z,14.10
2022-09-25T05:36:01.555Z,14.10
2022-09-25T05:38:30.223Z,14.10
2022-09-25T05:41:02.938Z,14.10
2022-09-25T05:43:31.316Z,14.10
2022-09-25T05:45:59.667Z,14.10
2022-09-25T05:48:27.538Z,14.10
2022-09-25T05:50:56.364Z,14.10
2022-09-25T05:53:26.750Z,14.20
2022-09-25T05:55:56.874Z,14.20
2022-09-25T05:58:25.250Z,14.20
2022-09-25T06:00:53.200Z,14.20
2022-09-25T06:03:21.079Z,14.20
2022-09-25T06:05:49.525Z,14.20
2022-09-25T06:08:17.285Z,14.20
2022-09-25T06:10:53.685Z,14.20
2022-09-25T06:13:21.787Z,14.20
2022-09-25T06:15:52.309Z,14.10
2022-09-25T06:18:21.829Z,14.10
2022-09-25T06:20:49.933Z,14.20
2022-09-25T06:23:18.851Z,14.20
2022-09-25T06:25:47.879Z,14.20
2022-09-25T06:28:15.584Z,14.20
2022-09-25T06:30:43.757Z,14.20
2022-09-25T06:33:13.955Z,14.20
2022-09-25T06:35:45.461Z,14.20
2022-09-25T06:38:14.456Z,14.20
2022-09-25T06:40:43.091Z,14.10
2022-09-25T06:43:13.975Z,14.20
2022-09-25T06:45:42.122Z,14.20
2022-09-25T06:48:12.632Z,14.20
2022-09-25T06:50:43.360Z,14.20
2022-09-25T06:53:11.945Z,14.20
2022-09-25T06:55:40.386Z,14.20
2022-09-25T06:58:09.695Z,14.10
2022-09-25T07:00:38.841Z,14.10
2022-09-25T07:03:24.623Z,14.00
2022-09-25T07:05:52.407Z,14.00
2022-09-25T07:08:20.916Z,14.00
2022-09-25T07:10:50.202Z,14.00
2022-09-25T07:13:18.486Z,14.00
2022-09-25T07:15:53.581Z,14.00
2022-09-25T07:18:21.722Z,14.00
2022-09-25T07:20:49.567Z,13.90
2022-09-25T07:23:18.514Z,13.90
2022-09-25T07:25:47.836Z,13.90
2022-09-25T07:28:18.948Z,13.90
2022-09-25T07:30:48.035Z,13.90
2022-09-25T07:33:17.313Z,13.90
2022-09-25T07:35:45.157Z,14.00
2022-09-25T07:38:12.868Z,14.00
2022-09-25T07:40:40.648Z,14.00
2022-09-25T07:43:08.478Z,14.20
2022-09-25T07:45:36.770Z,14.20
2022-09-25T07:48:06.142Z,14.30
2022-09-25T07:50:35.268Z,14.30
2022-09-25T07:53:02.940Z,14.30
2022-09-25T07:55:30.869Z,14.30
2022-09-25T07:57:59.141Z,14.40
2022-09-25T08:00:26.849Z,14.50
2022-09-25T08:02:57.813Z,14.60
2022-09-25T08:05:26.093Z,14.60
2022-09-25T08:07:55.337Z,14.70
2022-09-25T08:10:23.550Z,14.70
2022-09-25T08:12:51.270Z,14.70
2022-09-25T08:15:19.091Z,14.70
2022-09-25T08:17:46.794Z,14.70
2022-09-25T08:20:14.617Z,14.70
2022-09-25T08:22:42.315Z,14.70
2022-09-25T08:25:12.919Z,14.60
2022-09-25T08:27:40.871Z,14.50
2022-09-25T08:30:10.693Z,14.50
2022-09-25T08:32:39.223Z,14.50
2022-09-25T08:35:08.025Z,14.50
2022-09-25T08:37:35.787Z,14.40
2022-09-25T08:40:03.491Z,14.40
2022-09-25T08:42:36.635Z,14.50
2022-09-25T08:45:25.147Z,14.50
2022-09-25T08:48:18.839Z,14.50
2022-09-25T08:50:46.573Z,14.60
2022-09-25T08:56:11.664Z,14.50
2022-09-25T08:58:43.507Z,14.50
2022-09-25T09:01:14.759Z,14.60
2022-09-25T09:03:49.822Z,14.60
2022-09-25T09:06:19.418Z,14.70
2022-09-25T09:08:52.085Z,14.70
2022-09-25T09:11:24.657Z,14.80
2022-09-25T09:13:59.085Z,14.80
2022-09-25T09:16:34.252Z,14.80
2022-09-25T09:19:04.292Z,14.70
2022-09-25T09:21:36.034Z,14.70
2022-09-25T09:24:14.656Z,14.70
2022-09-25T09:27:04.628Z,14.50
2022-09-25T09:29:51.255Z,14.40
2022-09-25T09:32:39.364Z,14.40
2022-09-25T09:35:17.987Z,14.40
2022-09-25T09:37:54.665Z,14.50
2022-09-25T09:40:30.529Z,14.50
2022-09-25T09:43:07.274Z,14.50
2022-09-25T09:45:45.195Z,14.50
2022-09-25T09:48:18.399Z,14.50
2022-09-25T09:50:52.781Z,14.40
2022-09-25T09:53:29.134Z,14.40
2022-09-25T09:56:04.080Z,14.50
2022-09-25T09:58:40.994Z,14.50
2022-09-25T10:01:36.496Z,14.50
2022-09-25T10:04:05.178Z,14.60
2022-09-25T10:06:36.985Z,14.60
2022-09-25T10:09:06.740Z,14.60
2022-09-25T10:11:37.511Z,14.50
2022-09-25T10:14:06.060Z,14.40
2022-09-25T10:16:36.751Z,14.40
2022-09-25T10:19:08.403Z,14.40
2022-09-25T10:21:41.199Z,14.40
2022-09-25T10:24:09.019Z,14.40
2022-09-25T10:26:38.226Z,14.50
2022-09-25T10:29:25.944Z,14.50
2022-09-25T10:32:00.895Z,14.30
2022-09-25T10:34:29.597Z,14.30
2022-09-25T10:36:57.641Z,14.30
2022-09-25T10:39:44.045Z,14.20
2022-09-25T10:42:45.460Z,14.30
2022-09-25T10:45:30.681Z,14.30
2022-09-25T10:48:17.675Z,14.20
2022-09-25T10:50:45.958Z,14.20
2022-09-25T10:53:28.157Z,14.10
2022-09-25T10:56:02.156Z,14.20
2022-09-25T10:58:34.721Z,14.30
2022-09-25T11:01:03.513Z,14.20
2022-09-25T11:03:35.559Z,14.20
2022-09-25T11:06:07.266Z,14.20
2022-09-25T11:08:37.860Z,14.10
2022-09-25T11:11:09.283Z,14.10
2022-09-25T11:13:47.617Z,14.20
2022-09-25T11:16:15.569Z,14.30
2022-09-25T11:18:47.046Z,14.40
2022-09-25T11:21:33.187Z,14.30
2022-09-25T11:24:14.566Z,14.40
2022-09-25T11:26:50.065Z,14.40
2022-09-25T11:29:24.141Z,14.20
2022-09-25T11:31:55.831Z,14.20
2022-09-25T11:34:37.244Z,14.20
2022-09-25T11:37:11.597Z,14.20
2022-09-25T11:40:07.820Z,14.20
2022-09-25T11:42:44.862Z,14.20
2022-09-25T11:45:20.951Z,14.10
2022-09-25T11:47:55.048Z,14.10
2022-09-25T11:50:38.097Z,14.20
2022-09-25T11:53:18.302Z,14.20
2022-09-25T11:56:02.974Z,14.20
2022-09-25T11:58:46.749Z,14.10
2022-09-25T12:01:26.392Z,14.00
2022-09-25T12:04:15.154Z,14.00
2022-09-25T12:07:06.773Z,14.00
2022-09-25T12:09:47.469Z,14.00
2022-09-25T12:12:24.045Z,14.00
2022-09-25T12:14:59.654Z,14.00
2022-09-25T12:17:36.502Z,14.10
2022-09-25T12:20:13.146Z,14.10
2022-09-25T12:22:53.331Z,14.10
2022-09-25T12:25:34.643Z,14.20
2022-09-25T12:28:11.717Z,14.20
2022-09-25T12:30:57.023Z,14.20
2022-09-25T12:33:33.374Z,14.20
2022-09-25T12:36:08.991Z,14.10
2022-09-25T12:38:44.053Z,14.00
2022-09-25T12:41:18.645Z,14.10
2022-09-25T12:43:51.932Z,14.00
2022-09-25T12:46:26.905Z,14.10
2022-09-25T12:48:58.825Z,14.00
2022-09-25T12:51:35.135Z,14.00
2022-09-25T12:54:08.172Z,13.90
2022-09-25T12:56:43.576Z,13.90
2022-09-25T12:59:16.670Z,13.80
2022-09-25T13:01:52.561Z,13.80
2022-09-25T13:04:50.421Z,13.70
2022-09-25T13:07:25.846Z,13.70
2022-09-25T13:09:54.942Z,13.70
2022-09-25T13:12:34.470Z,13.70
2022-09-25T13:15:06.735Z,13.80
2022-09-25T13:17:35.146Z,13.70
2022-09-25T13:20:41.954Z,13.70
2022-09-25T13:23:14.912Z,13.60
2022-09-25T13:25:46.652Z,13.50
2022-09-25T13:28:20.895Z,13.50
2022-09-25T13:31:04.315Z,13.40
2022-09-25T13:33:46.382Z,13.40
2022-09-25T13:36:34.091Z,13.30
2022-09-25T13:39:22.125Z,13.30
2022-09-25T13:41:55.281Z,13.30
2022-09-25T13:44:52.392Z,13.40
2022-09-25T13:47:49.574Z,13.40
2022-09-25T13:50:28.496Z,13.60
2022-09-25T13:53:25.740Z,13.60
2022-09-25T13:56:25.835Z,13.80
2022-09-25T13:59:20.112Z,13.80
2022-09-25T14:01:49.601Z,13.80
2022-09-25T14:04:24.943Z,13.80
2022-09-25T14:06:58.079Z,13.90
2022-09-25T14:09:29.128Z,13.90
2022-09-25T14:12:08.034Z,14.00
2022-09-25T14:14:52.321Z,13.90
2022-09-25T14:17:22.730Z,13.90
2022-09-25T14:19:53.580Z,14.00
2022-09-25T14:22:30.154Z,14.10
2022-09-25T14:24:57.886Z,14.20
2022-09-25T14:27:27.840Z,14.20
2022-09-25T14:30:07.224Z,14.30
2022-09-25T14:32:55.738Z,14.40
2022-09-25T14:35:36.239Z,14.50
2022-09-25T14:38:39.706Z,14.60
2022-09-25T14:41:32.714Z,14.60
2022-09-25T14:44:22.319Z,14.60
2022-09-25T14:46:53.487Z,14.60
2022-09-25T14:49:26.682Z,14.70
2022-09-25T14:51:57.425Z,14.70
2022-09-25T14:54:29.375Z,14.70
2022-09-25T14:56:58.751Z,14.70
2022-09-25T14:59:32.069Z,14.80
2022-09-25T15:02:02.961Z,14.70
2022-09-25T15:04:33.211Z,14.60
2022-09-25T15:07:05.916Z,14.60
2022-09-25T15:09:37.566Z,14.70
2022-09-25T15:12:19.800Z,14.70
2022-09-25T15:15:08.128Z,14.70
2022-09-25T15:17:44.997Z,14.70
2022-09-25T15:20:16.414Z,14.80
2022-09-25T15:22:48.960Z,14.80
2022-09-25T15:25:25.013Z,14.90
2022-09-25T15:27:53.190Z,14.80
2022-09-25T15:30:21.184Z,14.90
2022-09-25T15:32:58.537Z,15.00
2022-09-25T15:35:29.910Z,15.10
2022-09-25T15:38:05.941Z,15.00
2022-09-25T15:40:34.699Z,14.90
2022-09-25T15:43:02.733Z,15.00
2022-09-25T15:45:45.876Z,14.90
2022-09-25T15:48:28.997Z,14.90
2022-09-25T15:50:58.006Z,14.80
2022-09-25T15:53:29.896Z,14.80
2022-09-25T15:56:16.476Z,14.70
2022-09-25T15:58:48.980Z,14.70
2022-09-25T16:01:38.217Z,14.60
2022-09-25T16:04:27.287Z,14.60
2022-09-25T16:06:55.732Z,14.60
2022-09-25T16:09:30.222Z,14.60
2022-09-25T16:12:19.198Z,14.60
2022-09-25T16:14:47.525Z,14.60
2022-09-25T16:17:23.499Z,14.60
2022-09-25T16:20:30.340Z,14.60
2022-09-25T16:23:00.766Z,14.60
2022-09-25T16:25:31.996Z,14.60
2022-09-25T16:28:04.961Z,14.60
2022-09-25T16:30:33.180Z,14.60
2022-09-25T16:33:08.003Z,14.60
2022-09-25T16:36:05.254Z,14.60
2022-09-25T16:38:31.018Z,14.60
2022-09-25T16:41:06.811Z,14.60
2022-09-25T16:43:35.986Z,14.60
2022-09-25T16:46:13.943Z,14.60
2022-09-25T16:48:43.083Z,14.60
2022-09-25T16:51:19.326Z,14.60
2022-09-25T16:53:50.213Z,14.50
2022-09-25T16:56:21.622Z,14.50
2022-09-25T16:58:49.720Z,14.50
2022-09-25T17:01:17.786Z,14.40
2022-09-25T17:03:51.609Z,14.40
2022-09-25T17:06:22.107Z,14.40
2022-09-25T17:08:50.297Z,14.30
2022-09-25T17:11:19.453Z,14.20
2022-09-25T17:13:47.784Z,14.10
2022-09-25T17:16:15.534Z,14.10
2022-09-25T17:18:43.523Z,14.10
2022-09-25T17:21:14.346Z,14.00
2022-09-25T17:23:43.730Z,14.00
2022-09-25T17:26:17.036Z,13.90
2022-09-25T17:28:44.809Z,13.80
2022-09-25T17:31:14.925Z,13.80
2022-09-25T17:33:42.957Z,13.80
2022-09-25T17:36:13.011Z,13.70
2022-09-25T17:38:41.306Z,13.60
2022-09-25T17:41:31.207Z,13.80
2022-09-25T17:43:59.617Z,13.70
2022-09-25T17:46:27.450Z,13.60
2022-09-25T17:48:55.647Z,13.50
2022-09-25T17:51:24.996Z,13.50
2022-09-25T17:53:53.602Z,13.40
2022-09-25T17:56:21.395Z,13.30
2022-09-25T17:58:56.656Z,13.30
2022-09-25T18:01:27.048Z,13.20
2022-09-25T18:03:57.036Z,13.10
2022-09-25T18:06:26.309Z,13.10
2022-09-25T18:08:55.564Z,13.00
2022-09-25T18:11:24.736Z,13.00
2022-09-25T18:13:55.394Z,13.00
2022-09-25T18:16:29.078Z,12.90
2022-09-25T18:19:14.721Z,12.80
2022-09-25T18:21:59.946Z,12.80
2022-09-25T18:24:28.186Z,12.70
2022-09-25T18:26:57.854Z,12.70
2022-09-25T18:29:26.968Z,12.60
2022-09-25T18:31:54.689Z,12.60
2022-09-25T18:34:22.731Z,12.60
2022-09-25T18:36:50.606Z,12.50
2022-09-25T18:39:20.339Z,12.50
2022-09-25T18:41:49.221Z,12.50
2022-09-25T18:44:17.707Z,12.40
2022-09-25T18:46:47.085Z,12.40
2022-09-25T18:49:14.992Z,12.30
2022-09-25T18:51:42.822Z,12.30
2022-09-25T18:54:13.732Z,12.20
2022-09-25T18:56:41.834Z,12.20
2022-09-25T18:59:09.577Z,12.10
2022-09-25T19:01:38.646Z,12.10
2022-09-25T19:04:08.771Z,12.00
2022-09-25T19:06:36.804Z,12.00
2022-09-25T19:09:05.201Z,11.90
2022-09-25T19:11:33.093Z,11.90
2022-09-25T19:14:04.597Z,11.80
2022-09-25T19:16:38.055Z,11.80
2022-09-25T19:19:07.619Z,11.70
2022-09-25T19:21:35.530Z,11.70
2022-09-25T19:24:04.516Z,11.70
2022-09-25T19:26:32.235Z,11.60
2022-09-25T19:29:00.970Z,11.60
2022-09-25T19:31:30.058Z,11.50
2022-09-25T19:33:58.155Z,11.50
2022-09-25T19:36:30.449Z,11.50
2022-09-25T19:38:59.463Z,11.40
2022-09-25T19:41:29.758Z,11.40
2022-09-25T19:44:02.253Z,11.30
2022-09-25T19:46:31.894Z,11.30
2022-09-25T19:48:59.778Z,11.30
2022-09-25T19:51:28.879Z,11.20
2022-09-25T19:53:56.572Z,11.10
2022-09-25T19:56:24.378Z,11.10
2022-09-25T19:58:52.267Z,11.10
2022-09-25T20:01:23.063Z,11.10
2022-09-25T20:03:51.273Z,11.00
2022-09-25T20:06:19.161Z,11.10
2022-09-25T20:08:48.751Z,11.10
2022-09-25T20:11:19.540Z,11.00
2022-09-25T20:13:48.689Z,10.90
2022-09-25T20:16:18.942Z,10.90
2022-09-25T20:18:49.178Z,10.80
2022-09-25T20:21:17.489Z,10.80
2022-09-25T20:23:45.472Z,10.70
2022-09-25T20:26:16.590Z,10.70
2022-09-25T20:28:45.546Z,10.60
2022-09-25T20:31:15.087Z,10.60
2022-09-25T20:33:43.442Z,10.60
2022-09-25T20:36:12.907Z,10.50
2022-09-25T20:38:40.973Z,10.50
2022-09-25T20:41:11.356Z,10.50
2022-09-25T20:43:41.464Z,10.50
2022-09-25T20:46:10.866Z,10.40
2022-09-25T20:48:41.008Z,10.40
2022-09-25T20:51:10.663Z,10.30
2022-09-25T20:53:40.015Z,10.30
2022-09-25T20:56:09.031Z,10.30
2022-09-25T20:58:38.049Z,10.20
2022-09-25T21:01:09.640Z,10.20
2022-09-25T21:03:39.418Z,10.20
2022-09-25T21:06:09.516Z,10.20
2022-09-25T21:08:37.602Z,10.20
2022-09-25T21:11:06.179Z,10.10
2022-09-25T21:13:35.360Z,10.10
2022-09-25T21:16:05.165Z,10.00
2022-09-25T21:18:35.883Z,10.00
2022-09-25T21:21:05.094Z,10.00
2022-09-25T21:23:33.247Z,9.90
2022-09-25T21:26:04.062Z,9.90
2022-09-25T21:28:32.456Z,9.90
2022-09-25T21:31:04.703Z,9.80
2022-09-25T21:33:33.949Z,9.80
2022-09-25T21:36:02.423Z,9.80
2022-09-25T21:38:30.606Z,9.70
2022-09-25T21:40:59.898Z,9.70
2022-09-25T21:43:28.324Z,9.70
2022-09-25T21:46:00.485Z,9.70
2022-09-25T21:48:28.956Z,9.70
2022-09-25T21:50:59.783Z,9.70
2022-09-25T21:53:27.911Z,9.60
2022-09-25T21:56:01.489Z,9.60
2022-09-25T21:58:30.081Z,9.60
2022-09-25T22:01:05.556Z,9.60
2022-09-25T22:03:35.257Z,9.60
2022-09-25T22:06:07.463Z,9.50
2022-09-25T22:08:36.462Z,9.50
2022-09-25T22:11:05.352Z,9.50
2022-09-25T22:13:35.758Z,9.50
2022-09-25T22:16:06.285Z,9.50
2022-09-25T22:18:40.619Z,9.50
2022-09-25T22:21:10.473Z,9.50
2022-09-25T22:23:38.242Z,9.40
2022-09-25T22:26:06.058Z,9.40
2022-09-25T22:28:34.874Z,9.40
2022-09-25T22:31:06.198Z,9.40
2022-09-25T22:33:34.197Z,9.40
2022-09-25T22:36:05.412Z,9.40
2022-09-25T22:38:35.076Z,9.40
2022-09-25T22:41:04.539Z,9.40
2022-09-25T22:43:32.629Z,9.40
2022-09-25T22:46:00.882Z,9.40
2022-09-25T22:48:28.793Z,9.40
2022-09-25T22:50:58.085Z,9.40
2022-09-25T22:53:26.243Z,9.40
2022-09-25T22:55:55.673Z,9.50
2022-09-25T22:58:23.563Z,9.40
2022-09-25T23:00:53.127Z,9.50
2022-09-25T23:03:23.387Z,9.50
2022-09-25T23:05:52.528Z,9.40
2022-09-25T23:08:20.304Z,9.50
2022-09-25T23:11:06.324Z,9.50
2022-09-25T23:13:36.405Z,9.60
2022-09-25T23:16:08.624Z,9.60
2022-09-25T23:18:37.631Z,9.60
2022-09-25T23:21:05.773Z,9.60
2022-09-25T23:23:33.737Z,9.70
2022-09-25T23:26:03.430Z,9.70
2022-09-25T23:28:33.291Z,9.70
2022-09-25T23:31:07.741Z,9.70
2022-09-25T23:33:36.393Z,9.70
2022-09-25T23:36:06.202Z,9.70
2022-09-25T23:38:34.679Z,9.70
2022-09-25T23:41:02.909Z,9.70
2022-09-25T23:43:31.025Z,9.80
2022-09-25T23:45:58.902Z,9.80
2022-09-25T23:48:28.078Z,9.80
2022-09-25T23:50:55.818Z,9.80
2022-09-25T23:53:23.613Z,9.80
2022-09-25T23:55:51.349Z,9.80
2022-09-25T23:58:19.061Z,9.80
